sensor_id;sensor_type;location;lat;lon;timestamp;temperature;humidity
18581;DHT22;9420;50.876;7.012;2023-10-19T00:02:08;11.29;87.46
18581;DHT22;9420;50.876;7.012;2023-10-19T00:04:34;11.31;87.63
18581;DHT22;9420;50.876;7.012;2023-10-19T00:07:01;11.31;87.56
18581;DHT22;9420;50.876;7.012;2023-10-19T00:09:30;11.26;87.62
18581;DHT22;9420;50.876;7.012;2023-10-19T00:12:02;11.29;87.58
18581;DHT22;9420;50.876;7.012;2023-10-19T00:14:30;11.29;87.56
18581;DHT22;9420;50.876;7.012;2023-10-19T00:16:57;11.36;87.37
18581;DHT22;9420;50.876;7.012;2023-10-19T00:19:32;11.33;87.30
18581;DHT22;9420;50.876;7.012;2023-10-19T00:22:04;11.45;87.16
18581;DHT22;9420;50.876;7.012;2023-10-19T00:24:35;11.40;87.56
18581;DHT22;9420;50.876;7.012;2023-10-19T00:27:01;11.39;88.13
18581;DHT22;9420;50.876;7.012;2023-10-19T00:29:33;11.43;87.76
18581;DHT22;9420;50.876;7.012;2023-10-19T00:32:05;11.47;87.78
18581;DHT22;9420;50.876;7.012;2023-10-19T00:34:38;11.55;87.87
18581;DHT22;9420;50.876;7.012;2023-10-19T00:37:05;11.58;88.24
18581;DHT22;9420;50.876;7.012;2023-10-19T00:39:36;11.52;87.60
18581;DHT22;9420;50.876;7.012;2023-10-19T00:42:08;11.61;88.29
18581;DHT22;9420;50.876;7.012;2023-10-19T00:44:36;11.61;87.99
18581;DHT22;9420;50.876;7.012;2023-10-19T00:47:07;11.61;88.05
18581;DHT22;9420;50.876;7.012;2023-10-19T00:49:38;11.65;87.74
18581;DHT22;9420;50.876;7.012;2023-10-19T00:52:06;11.65;88.09
18581;DHT22;9420;50.876;7.012;2023-10-19T00:54:39;11.74;87.62
18581;DHT22;9420;50.876;7.012;2023-10-19T00:57:12;11.73;87.96
18581;DHT22;9420;50.876;7.012;2023-10-19T00:59:41;11.74;88.46
18581;DHT22;9420;50.876;7.012;2023-10-19T01:02:13;11.69;88.45
18581;DHT22;9420;50.876;7.012;2023-10-19T01:04:43;11.74;88.59
18581;DHT22;9420;50.876;7.012;2023-10-19T01:07:16;11.73;88.60
18581;DHT22;9420;50.876;7.012;2023-10-19T01:09:47;11.74;88.38
18581;DHT22;9420;50.876;7.012;2023-10-19T01:12:18;11.76;88.34
18581;DHT22;9420;50.876;7.012;2023-10-19T01:15:06;11.73;88.30
18581;DHT22;9420;50.876;7.012;2023-10-19T01:17:35;11.76;88.13
18581;DHT22;9420;50.876;7.012;2023-10-19T01:20:08;11.77;88.51
18581;DHT22;9420;50.876;7.012;2023-10-19T01:22:51;11.83;88.36
18581;DHT22;9420;50.876;7.012;2023-10-19T01:25:19;11.81;88.36
18581;DHT22;9420;50.876;7.012;2023-10-19T01:27:52;11.89;88.34
18581;DHT22;9420;50.876;7.012;2023-10-19T01:30:23;11.90;88.49
18581;DHT22;9420;50.876;7.012;2023-10-19T01:32:52;11.90;88.47
18581;DHT22;9420;50.876;7.012;2023-10-19T01:35:19;11.90;88.57
18581;DHT22;9420;50.876;7.012;2023-10-19T01:37:45;11.97;88.66
18581;DHT22;9420;50.876;7.012;2023-10-19T01:40:13;11.95;88.58
18581;DHT22;9420;50.876;7.012;2023-10-19T01:42:45;11.94;88.77
18581;DHT22;9420;50.876;7.012;2023-10-19T01:45:11;12.00;88.93
18581;DHT22;9420;50.876;7.012;2023-10-19T01:47:37;11.98;88.50
18581;DHT22;9420;50.876;7.012;2023-10-19T01:50:06;12.00;88.92
18581;DHT22;9420;50.876;7.012;2023-10-19T01:52:45;12.01;88.96
18581;DHT22;9420;50.876;7.012;2023-10-19T01:55:12;12.00;88.94
18581;DHT22;9420;50.876;7.012;2023-10-19T01:57:39;12.02;89.12
18581;DHT22;9420;50.876;7.012;2023-10-19T02:00:07;12.02;88.92
18581;DHT22;9420;50.876;7.012;2023-10-19T02:02:36;12.05;88.95
18581;DHT22;9420;50.876;7.012;2023-10-19T02:05:02;12.08;88.64
18581;DHT22;9420;50.876;7.012;2023-10-19T02:07:38;12.07;88.81
18581;DHT22;9420;50.876;7.012;2023-10-19T02:10:05;12.07;89.03
18581;DHT22;9420;50.876;7.012;2023-10-19T02:12:37;12.04;89.14
18581;DHT22;9420;50.876;7.012;2023-10-19T02:15:03;12.04;89.09
18581;DHT22;9420;50.876;7.012;2023-10-19T02:17:30;12.08;88.92
18581;DHT22;9420;50.876;7.012;2023-10-19T02:19:56;12.11;88.65
18581;DHT22;9420;50.876;7.012;2023-10-19T02:22:23;12.04;88.72
18581;DHT22;9420;50.876;7.012;2023-10-19T02:24:50;12.05;88.76
18581;DHT22;9420;50.876;7.012;2023-10-19T02:27:15;12.02;88.89
18581;DHT22;9420;50.876;7.012;2023-10-19T02:29:43;11.95;89.13
18581;DHT22;9420;50.876;7.012;2023-10-19T02:32:09;11.98;89.10
18581;DHT22;9420;50.876;7.012;2023-10-19T02:34:36;11.97;89.10
18581;DHT22;9420;50.876;7.012;2023-10-19T02:37:01;11.98;88.94
18581;DHT22;9420;50.876;7.012;2023-10-19T02:39:28;12.00;89.00
18581;DHT22;9420;50.876;7.012;2023-10-19T02:41:54;11.94;89.31
18581;DHT22;9420;50.876;7.012;2023-10-19T02:44:21;11.89;89.39
18581;DHT22;9420;50.876;7.012;2023-10-19T02:46:51;11.84;89.63
18581;DHT22;9420;50.876;7.012;2023-10-19T02:49:20;11.86;89.66
18581;DHT22;9420;50.876;7.012;2023-10-19T02:51:48;11.87;89.46
18581;DHT22;9420;50.876;7.012;2023-10-19T02:54:16;11.93;89.43
18581;DHT22;9420;50.876;7.012;2023-10-19T02:56:43;11.91;89.41
18581;DHT22;9420;50.876;7.012;2023-10-19T02:59:13;11.95;89.41
18581;DHT22;9420;50.876;7.012;2023-10-19T03:01:42;12.01;89.46
18581;DHT22;9420;50.876;7.012;2023-10-19T03:04:10;12.01;89.18
18581;DHT22;9420;50.876;7.012;2023-10-19T03:06:38;12.00;89.53
18581;DHT22;9420;50.876;7.012;2023-10-19T03:09:06;12.05;89.40
18581;DHT22;9420;50.876;7.012;2023-10-19T03:11:39;12.01;89.40
18581;DHT22;9420;50.876;7.012;2023-10-19T03:14:07;12.05;89.51
18581;DHT22;9420;50.876;7.012;2023-10-19T03:16:35;11.98;89.50
18581;DHT22;9420;50.876;7.012;2023-10-19T03:19:02;11.94;89.50
18581;DHT22;9420;50.876;7.012;2023-10-19T03:21:29;11.90;89.78
18581;DHT22;9420;50.876;7.012;2023-10-19T03:23:59;11.90;89.67
18581;DHT22;9420;50.876;7.012;2023-10-19T03:26:27;11.74;89.65
18581;DHT22;9420;50.876;7.012;2023-10-19T03:29:02;11.65;89.93
18581;DHT22;9420;50.876;7.012;2023-10-19T03:31:28;11.56;89.95
18581;DHT22;9420;50.876;7.012;2023-10-19T03:33:55;11.51;90.17
18581;DHT22;9420;50.876;7.012;2023-10-19T03:36:25;11.42;90.29
18581;DHT22;9420;50.876;7.012;2023-10-19T03:38:55;11.43;90.23
18581;DHT22;9420;50.876;7.012;2023-10-19T03:41:24;11.40;90.38
18581;DHT22;9420;50.876;7.012;2023-10-19T03:43:56;11.32;90.37
18581;DHT22;9420;50.876;7.012;2023-10-19T03:46:23;11.29;90.36
18581;DHT22;9420;50.876;7.012;2023-10-19T03:48:55;11.32;90.43
18581;DHT22;9420;50.876;7.012;2023-10-19T03:51:25;11.40;90.52
18581;DHT22;9420;50.876;7.012;2023-10-19T03:53:53;11.61;90.52
18581;DHT22;9420;50.876;7.012;2023-10-19T03:56:26;11.55;90.44
18581;DHT22;9420;50.876;7.012;2023-10-19T03:58:58;11.53;90.41
18581;DHT22;9420;50.876;7.012;2023-10-19T04:01:25;11.53;90.48
18581;DHT22;9420;50.876;7.012;2023-10-19T04:03:52;11.53;90.59
18581;DHT22;9420;50.876;7.012;2023-10-19T04:06:20;11.47;90.45
18581;DHT22;9420;50.876;7.012;2023-10-19T04:08:47;11.43;90.44
18581;DHT22;9420;50.876;7.012;2023-10-19T04:11:17;11.42;90.50
18581;DHT22;9420;50.876;7.012;2023-10-19T04:13:58;11.46;90.60
18581;DHT22;9420;50.876;7.012;2023-10-19T04:16:29;11.55;90.63
18581;DHT22;9420;50.876;7.012;2023-10-19T04:18:55;11.56;90.63
18581;DHT22;9420;50.876;7.012;2023-10-19T04:21:23;11.58;90.61
18581;DHT22;9420;50.876;7.012;2023-10-19T04:23:50;11.58;90.69
18581;DHT22;9420;50.876;7.012;2023-10-19T04:26:18;11.66;90.62
18581;DHT22;9420;50.876;7.012;2023-10-19T04:28:44;11.67;90.44
18581;DHT22;9420;50.876;7.012;2023-10-19T04:31:15;11.76;90.46
18581;DHT22;9420;50.876;7.012;2023-10-19T04:33:42;11.80;90.39
18581;DHT22;9420;50.876;7.012;2023-10-19T04:36:12;11.89;90.34
18581;DHT22;9420;50.876;7.012;2023-10-19T04:38:39;11.90;90.31
18581;DHT22;9420;50.876;7.012;2023-10-19T04:41:06;11.89;90.19
18581;DHT22;9420;50.876;7.012;2023-10-19T04:43:35;11.89;90.33
18581;DHT22;9420;50.876;7.012;2023-10-19T04:46:09;11.89;90.28
18581;DHT22;9420;50.876;7.012;2023-10-19T04:48:38;11.93;90.28
18581;DHT22;9420;50.876;7.012;2023-10-19T04:51:06;11.91;90.26
18581;DHT22;9420;50.876;7.012;2023-10-19T04:53:34;11.87;90.26
18581;DHT22;9420;50.876;7.012;2023-10-19T04:56:02;11.87;90.18
18581;DHT22;9420;50.876;7.012;2023-10-19T04:58:30;11.84;90.42
18581;DHT22;9420;50.876;7.012;2023-10-19T05:00:58;11.87;90.32
18581;DHT22;9420;50.876;7.012;2023-10-19T05:03:25;11.90;90.30
18581;DHT22;9420;50.876;7.012;2023-10-19T05:05:54;11.90;90.37
18581;DHT22;9420;50.876;7.012;2023-10-19T05:08:22;11.93;90.28
18581;DHT22;9420;50.876;7.012;2023-10-19T05:10:51;11.93;90.33
18581;DHT22;9420;50.876;7.012;2023-10-19T05:13:18;11.91;90.43
18581;DHT22;9420;50.876;7.012;2023-10-19T05:15:45;11.87;90.39
18581;DHT22;9420;50.876;7.012;2023-10-19T05:18:13;11.91;90.37
18581;DHT22;9420;50.876;7.012;2023-10-19T05:20:40;11.93;90.36
18581;DHT22;9420;50.876;7.012;2023-10-19T05:23:07;11.97;90.40
18581;DHT22;9420;50.876;7.012;2023-10-19T05:25:34;11.95;90.39
18581;DHT22;9420;50.876;7.012;2023-10-19T05:28:03;11.97;90.38
18581;DHT22;9420;50.876;7.012;2023-10-19T05:30:30;11.95;90.46
18581;DHT22;9420;50.876;7.012;2023-10-19T05:32:57;11.97;90.47
18581;DHT22;9420;50.876;7.012;2023-10-19T05:35:25;11.98;90.35
18581;DHT22;9420;50.876;7.012;2023-10-19T05:37:52;12.01;90.40
18581;DHT22;9420;50.876;7.012;2023-10-19T05:40:19;12.01;90.44
18581;DHT22;9420;50.876;7.012;2023-10-19T05:42:47;12.01;90.52
18581;DHT22;9420;50.876;7.012;2023-10-19T05:45:14;12.02;90.57
18581;DHT22;9420;50.876;7.012;2023-10-19T05:47:42;12.07;90.52
18581;DHT22;9420;50.876;7.012;2023-10-19T05:50:10;12.07;90.47
18581;DHT22;9420;50.876;7.012;2023-10-19T05:52:41;12.04;90.50
18581;DHT22;9420;50.876;7.012;2023-10-19T05:55:08;12.10;90.49
18581;DHT22;9420;50.876;7.012;2023-10-19T05:57:36;12.07;90.56
18581;DHT22;9420;50.876;7.012;2023-10-19T06:00:08;12.13;90.53
18581;DHT22;9420;50.876;7.012;2023-10-19T06:02:39;12.14;90.54
18581;DHT22;9420;50.876;7.012;2023-10-19T06:05:06;12.14;90.55
18581;DHT22;9420;50.876;7.012;2023-10-19T06:07:33;12.18;90.44
18581;DHT22;9420;50.876;7.012;2023-10-19T06:10:01;12.20;90.48
18581;DHT22;9420;50.876;7.012;2023-10-19T06:12:30;12.20;90.51
18581;DHT22;9420;50.876;7.012;2023-10-19T06:14:58;12.22;90.33
18581;DHT22;9420;50.876;7.012;2023-10-19T06:17:25;12.22;90.48
18581;DHT22;9420;50.876;7.012;2023-10-19T06:19:52;12.21;90.48
18581;DHT22;9420;50.876;7.012;2023-10-19T06:22:18;12.24;90.47
18581;DHT22;9420;50.876;7.012;2023-10-19T06:24:45;12.28;90.60
18581;DHT22;9420;50.876;7.012;2023-10-19T06:27:13;12.30;90.47
18581;DHT22;9420;50.876;7.012;2023-10-19T06:29:40;12.38;90.44
18581;DHT22;9420;50.876;7.012;2023-10-19T06:32:06;12.41;90.34
18581;DHT22;9420;50.876;7.012;2023-10-19T06:34:33;12.48;90.41
18581;DHT22;9420;50.876;7.012;2023-10-19T06:37:00;12.48;90.41
18581;DHT22;9420;50.876;7.012;2023-10-19T06:39:29;12.48;90.29
18581;DHT22;9420;50.876;7.012;2023-10-19T06:41:55;12.58;90.26
18581;DHT22;9420;50.876;7.012;2023-10-19T06:44:24;12.58;90.28
18581;DHT22;9420;50.876;7.012;2023-10-19T06:46:51;12.58;90.28
18581;DHT22;9420;50.876;7.012;2023-10-19T06:49:17;12.60;90.31
18581;DHT22;9420;50.876;7.012;2023-10-19T06:51:44;12.65;90.33
18581;DHT22;9420;50.876;7.012;2023-10-19T06:54:11;12.63;90.31
18581;DHT22;9420;50.876;7.012;2023-10-19T06:56:38;12.69;90.29
18581;DHT22;9420;50.876;7.012;2023-10-19T06:59:06;12.73;90.35
18581;DHT22;9420;50.876;7.012;2023-10-19T07:01:34;12.79;90.36
18581;DHT22;9420;50.876;7.012;2023-10-19T07:04:01;12.82;90.37
18581;DHT22;9420;50.876;7.012;2023-10-19T07:06:28;12.83;90.26
18581;DHT22;9420;50.876;7.012;2023-10-19T07:08:56;12.86;90.29
18581;DHT22;9420;50.876;7.012;2023-10-19T07:11:23;12.90;89.98
18581;DHT22;9420;50.876;7.012;2023-10-19T07:13:50;12.95;90.00
18581;DHT22;9420;50.876;7.012;2023-10-19T07:16:16;12.97;90.05
18581;DHT22;9420;50.876;7.012;2023-10-19T07:18:47;13.00;90.01
18581;DHT22;9420;50.876;7.012;2023-10-19T07:21:14;13.06;90.01
18581;DHT22;9420;50.876;7.012;2023-10-19T07:23:42;13.06;89.85
18581;DHT22;9420;50.876;7.012;2023-10-19T07:26:11;13.11;89.90
18581;DHT22;9420;50.876;7.012;2023-10-19T07:28:39;13.18;89.74
18581;DHT22;9420;50.876;7.012;2023-10-19T07:31:06;13.18;89.80
18581;DHT22;9420;50.876;7.012;2023-10-19T07:33:37;13.20;89.82
18581;DHT22;9420;50.876;7.012;2023-10-19T07:36:13;13.18;89.70
18581;DHT22;9420;50.876;7.012;2023-10-19T07:38:40;13.26;89.72
18581;DHT22;9420;50.876;7.012;2023-10-19T07:41:08;13.31;89.64
18581;DHT22;9420;50.876;7.012;2023-10-19T07:43:35;13.33;89.74
18581;DHT22;9420;50.876;7.012;2023-10-19T07:46:01;13.36;89.56
18581;DHT22;9420;50.876;7.012;2023-10-19T07:48:28;13.40;89.58
18581;DHT22;9420;50.876;7.012;2023-10-19T07:50:55;13.47;89.57
18581;DHT22;9420;50.876;7.012;2023-10-19T07:53:23;13.51;89.51
18581;DHT22;9420;50.876;7.012;2023-10-19T07:55:50;13.53;89.36
18581;DHT22;9420;50.876;7.012;2023-10-19T07:58:17;13.65;89.24
18581;DHT22;9420;50.876;7.012;2023-10-19T08:00:44;13.66;89.16
18581;DHT22;9420;50.876;7.012;2023-10-19T08:03:12;13.75;89.25
18581;DHT22;9420;50.876;7.012;2023-10-19T08:05:41;13.85;88.95
18581;DHT22;9420;50.876;7.012;2023-10-19T08:08:08;13.96;88.78
18581;DHT22;9420;50.876;7.012;2023-10-19T08:10:36;14.05;88.66
18581;DHT22;9420;50.876;7.012;2023-10-19T08:13:03;14.12;87.97
18581;DHT22;9420;50.876;7.012;2023-10-19T08:15:30;14.29;88.08
18581;DHT22;9420;50.876;7.012;2023-10-19T08:17:56;14.33;88.05
18581;DHT22;9420;50.876;7.012;2023-10-19T08:20:23;14.47;87.74
18581;DHT22;9420;50.876;7.012;2023-10-19T08:22:53;14.57;87.44
18581;DHT22;9420;50.876;7.012;2023-10-19T08:25:22;14.67;87.40
18581;DHT22;9420;50.876;7.012;2023-10-19T08:27:50;14.87;86.71
18581;DHT22;9420;50.876;7.012;2023-10-19T08:30:20;14.98;86.64
18581;DHT22;9420;50.876;7.012;2023-10-19T08:32:47;15.01;86.40
18581;DHT22;9420;50.876;7.012;2023-10-19T08:35:14;14.98;86.89
18581;DHT22;9420;50.876;7.012;2023-10-19T08:37:43;14.99;87.12
18581;DHT22;9420;50.876;7.012;2023-10-19T08:40:12;14.92;87.36
18581;DHT22;9420;50.876;7.012;2023-10-19T08:42:40;14.91;87.11
18581;DHT22;9420;50.876;7.012;2023-10-19T08:45:09;14.95;87.41
18581;DHT22;9420;50.876;7.012;2023-10-19T08:47:41;14.91;87.79
18581;DHT22;9420;50.876;7.012;2023-10-19T08:50:13;14.91;87.62
18581;DHT22;9420;50.876;7.012;2023-10-19T08:52:41;14.93;87.57
18581;DHT22;9420;50.876;7.012;2023-10-19T08:55:08;14.98;87.42
18581;DHT22;9420;50.876;7.012;2023-10-19T08:57:39;15.05;87.45
18581;DHT22;9420;50.876;7.012;2023-10-19T09:00:08;15.08;87.34
18581;DHT22;9420;50.876;7.012;2023-10-19T09:02:35;15.20;87.47
18581;DHT22;9420;50.876;7.012;2023-10-19T09:05:06;15.22;87.61
18581;DHT22;9420;50.876;7.012;2023-10-19T09:07:32;15.29;86.86
18581;DHT22;9420;50.876;7.012;2023-10-19T09:09:59;15.43;86.73
18581;DHT22;9420;50.876;7.012;2023-10-19T09:12:31;15.50;86.04
18581;DHT22;9420;50.876;7.012;2023-10-19T09:14:57;15.60;85.71
18581;DHT22;9420;50.876;7.012;2023-10-19T09:17:29;15.67;85.44
18581;DHT22;9420;50.876;7.012;2023-10-19T09:19:57;15.84;84.75
18581;DHT22;9420;50.876;7.012;2023-10-19T09:22:35;15.93;84.70
18581;DHT22;9420;50.876;7.012;2023-10-19T09:25:09;15.98;84.37
18581;DHT22;9420;50.876;7.012;2023-10-19T09:27:36;16.08;84.15
18581;DHT22;9420;50.876;7.012;2023-10-19T09:30:05;16.17;84.51
18581;DHT22;9420;50.876;7.012;2023-10-19T09:32:36;16.30;84.25
18581;DHT22;9420;50.876;7.012;2023-10-19T09:35:05;16.41;83.86
18581;DHT22;9420;50.876;7.012;2023-10-19T09:37:34;16.49;83.19
18581;DHT22;9420;50.876;7.012;2023-10-19T09:40:01;16.62;83.61
18581;DHT22;9420;50.876;7.012;2023-10-19T09:42:27;16.65;82.62
18581;DHT22;9420;50.876;7.012;2023-10-19T09:44:59;16.67;82.49
18581;DHT22;9420;50.876;7.012;2023-10-19T09:47:37;16.73;82.84
18581;DHT22;9420;50.876;7.012;2023-10-19T09:50:09;16.90;82.70
18581;DHT22;9420;50.876;7.012;2023-10-19T09:52:37;17.08;82.19
18581;DHT22;9420;50.876;7.012;2023-10-19T09:55:09;17.25;81.70
18581;DHT22;9420;50.876;7.012;2023-10-19T09:57:41;17.49;81.24
18581;DHT22;9420;50.876;7.012;2023-10-19T10:00:12;17.65;81.03
18581;DHT22;9420;50.876;7.012;2023-10-19T10:02:42;17.83;80.80
18581;DHT22;9420;50.876;7.012;2023-10-19T10:05:45;18.13;80.37
18581;DHT22;9420;50.876;7.012;2023-10-19T10:08:29;18.40;79.51
18581;DHT22;9420;50.876;7.012;2023-10-19T10:10:56;18.68;78.62
18581;DHT22;9420;50.876;7.012;2023-10-19T10:13:39;19.17;77.45
18581;DHT22;9420;50.876;7.012;2023-10-19T10:16:07;19.33;77.64
18581;DHT22;9420;50.876;7.012;2023-10-19T10:18:35;19.30;77.43
18581;DHT22;9420;50.876;7.012;2023-10-19T10:21:06;19.05;76.67
18581;DHT22;9420;50.876;7.012;2023-10-19T10:23:40;18.88;76.62
18581;DHT22;9420;50.876;7.012;2023-10-19T10:26:08;18.99;78.33
18581;DHT22;9420;50.876;7.012;2023-10-19T10:28:35;19.16;77.98
18581;DHT22;9420;50.876;7.012;2023-10-19T10:31:13;19.23;76.76
18581;DHT22;9420;50.876;7.012;2023-10-19T10:33:43;19.26;77.03
18581;DHT22;9420;50.876;7.012;2023-10-19T10:36:12;19.15;77.18
18581;DHT22;9420;50.876;7.012;2023-10-19T10:38:39;19.30;76.96
18581;DHT22;9420;50.876;7.012;2023-10-19T10:41:06;19.46;76.10
18581;DHT22;9420;50.876;7.012;2023-10-19T10:43:51;19.38;76.21
18581;DHT22;9420;50.876;7.012;2023-10-19T10:46:18;19.17;76.08
18581;DHT22;9420;50.876;7.012;2023-10-19T10:48:48;19.13;76.29
18581;DHT22;9420;50.876;7.012;2023-10-19T10:51:18;19.00;76.71
18581;DHT22;9420;50.876;7.012;2023-10-19T10:53:49;18.96;77.25
18581;DHT22;9420;50.876;7.012;2023-10-19T10:56:17;18.89;75.97
18581;DHT22;9420;50.876;7.012;2023-10-19T10:58:45;18.64;76.92
18581;DHT22;9420;50.876;7.012;2023-10-19T11:01:12;18.59;77.77
18581;DHT22;9420;50.876;7.012;2023-10-19T11:03:39;18.54;77.96
18581;DHT22;9420;50.876;7.012;2023-10-19T11:06:08;18.29;78.48
18581;DHT22;9420;50.876;7.012;2023-10-19T11:08:35;18.20;79.33
18581;DHT22;9420;50.876;7.012;2023-10-19T11:11:04;18.20;79.38
18581;DHT22;9420;50.876;7.012;2023-10-19T11:13:32;18.20;79.74
18581;DHT22;9420;50.876;7.012;2023-10-19T11:16:04;18.13;79.76
18581;DHT22;9420;50.876;7.012;2023-10-19T11:18:33;18.21;79.33
18581;DHT22;9420;50.876;7.012;2023-10-19T11:21:01;18.38;78.68
18581;DHT22;9420;50.876;7.012;2023-10-19T11:23:43;18.52;78.55
18581;DHT22;9420;50.876;7.012;2023-10-19T11:26:11;18.51;78.21
18581;DHT22;9420;50.876;7.012;2023-10-19T11:28:38;18.50;78.06
18581;DHT22;9420;50.876;7.012;2023-10-19T11:31:19;18.50;78.56
18581;DHT22;9420;50.876;7.012;2023-10-19T11:33:47;18.45;79.40
18581;DHT22;9420;50.876;7.012;2023-10-19T11:36:15;18.45;79.36
18581;DHT22;9420;50.876;7.012;2023-10-19T11:38:46;18.38;79.37
18581;DHT22;9420;50.876;7.012;2023-10-19T11:41:14;18.37;78.81
18581;DHT22;9420;50.876;7.012;2023-10-19T11:43:44;18.36;78.96
18581;DHT22;9420;50.876;7.012;2023-10-19T11:46:11;18.30;78.84
18581;DHT22;9420;50.876;7.012;2023-10-19T11:48:40;18.11;79.25
18581;DHT22;9420;50.876;7.012;2023-10-19T11:51:08;17.96;79.32
18581;DHT22;9420;50.876;7.012;2023-10-19T11:53:37;17.96;78.71
18581;DHT22;9420;50.876;7.012;2023-10-19T11:56:07;17.89;79.23
18581;DHT22;9420;50.876;7.012;2023-10-19T11:58:35;17.83;79.00
18581;DHT22;9420;50.876;7.012;2023-10-19T12:01:04;17.75;80.16
18581;DHT22;9420;50.876;7.012;2023-10-19T12:03:33;17.62;79.86
18581;DHT22;9420;50.876;7.012;2023-10-19T12:06:02;17.52;80.45
18581;DHT22;9420;50.876;7.012;2023-10-19T12:08:31;17.45;80.33
18581;DHT22;9420;50.876;7.012;2023-10-19T12:10:58;17.38;80.53
18581;DHT22;9420;50.876;7.012;2023-10-19T12:13:28;17.34;81.16
18581;DHT22;9420;50.876;7.012;2023-10-19T12:15:54;17.31;80.90
18581;DHT22;9420;50.876;7.012;2023-10-19T12:18:21;17.24;81.21
18581;DHT22;9420;50.876;7.012;2023-10-19T12:20:48;17.32;80.24
18581;DHT22;9420;50.876;7.012;2023-10-19T12:23:14;17.39;79.67
18581;DHT22;9420;50.876;7.012;2023-10-19T12:25:41;17.36;80.33
18581;DHT22;9420;50.876;7.012;2023-10-19T12:28:08;17.38;80.23
18581;DHT22;9420;50.876;7.012;2023-10-19T12:30:40;17.36;80.72
18581;DHT22;9420;50.876;7.012;2023-10-19T12:33:07;17.35;80.81
18581;DHT22;9420;50.876;7.012;2023-10-19T12:35:37;17.42;80.59
18581;DHT22;9420;50.876;7.012;2023-10-19T12:38:11;17.44;80.94
18581;DHT22;9420;50.876;7.012;2023-10-19T12:40:42;17.42;80.69
18581;DHT22;9420;50.876;7.012;2023-10-19T12:43:10;17.44;80.55
18581;DHT22;9420;50.876;7.012;2023-10-19T12:45:38;17.38;80.92
18581;DHT22;9420;50.876;7.012;2023-10-19T12:48:06;17.48;81.14
18581;DHT22;9420;50.876;7.012;2023-10-19T12:50:35;17.31;81.56
18581;DHT22;9420;50.876;7.012;2023-10-19T12:53:03;17.25;82.66
18581;DHT22;9420;50.876;7.012;2023-10-19T12:55:29;17.23;82.68
18581;DHT22;9420;50.876;7.012;2023-10-19T12:57:57;17.17;83.51
18581;DHT22;9420;50.876;7.012;2023-10-19T13:00:31;17.17;84.40
18581;DHT22;9420;50.876;7.012;2023-10-19T13:03:01;17.21;84.10
18581;DHT22;9420;50.876;7.012;2023-10-19T13:05:33;17.24;84.59
18581;DHT22;9420;50.876;7.012;2023-10-19T13:08:00;17.24;84.54
18581;DHT22;9420;50.876;7.012;2023-10-19T13:10:30;17.18;85.42
18581;DHT22;9420;50.876;7.012;2023-10-19T13:12:59;17.13;85.24
18581;DHT22;9420;50.876;7.012;2023-10-19T13:15:29;17.08;85.62
18581;DHT22;9420;50.876;7.012;2023-10-19T13:17:56;16.90;86.16
18581;DHT22;9420;50.876;7.012;2023-10-19T13:20:24;16.83;86.84
18581;DHT22;9420;50.876;7.012;2023-10-19T13:22:52;16.77;87.39
18581;DHT22;9420;50.876;7.012;2023-10-19T13:25:21;16.75;87.49
18581;DHT22;9420;50.876;7.012;2023-10-19T13:28:05;16.65;87.58
18581;DHT22;9420;50.876;7.012;2023-10-19T13:30:36;16.59;87.66
18581;DHT22;9420;50.876;7.012;2023-10-19T13:33:04;16.51;88.24
18581;DHT22;9420;50.876;7.012;2023-10-19T13:35:31;16.45;88.51
18581;DHT22;9420;50.876;7.012;2023-10-19T13:38:00;16.35;88.60
18581;DHT22;9420;50.876;7.012;2023-10-19T13:40:27;16.32;89.07
18581;DHT22;9420;50.876;7.012;2023-10-19T13:42:56;16.28;89.08
18581;DHT22;9420;50.876;7.012;2023-10-19T13:45:23;16.26;89.01
18581;DHT22;9420;50.876;7.012;2023-10-19T13:47:49;16.24;88.90
18581;DHT22;9420;50.876;7.012;2023-10-19T13:50:21;16.24;88.88
18581;DHT22;9420;50.876;7.012;2023-10-19T13:52:48;16.19;89.55
18581;DHT22;9420;50.876;7.012;2023-10-19T13:55:17;16.15;89.71
18581;DHT22;9420;50.876;7.012;2023-10-19T13:57:46;16.19;89.28
18581;DHT22;9420;50.876;7.012;2023-10-19T14:00:14;16.18;89.63
18581;DHT22;9420;50.876;7.012;2023-10-19T14:02:45;16.22;89.50
18581;DHT22;9420;50.876;7.012;2023-10-19T14:05:12;16.22;89.24
18581;DHT22;9420;50.876;7.012;2023-10-19T14:07:39;16.24;89.42
18581;DHT22;9420;50.876;7.012;2023-10-19T14:10:07;16.22;89.31
18581;DHT22;9420;50.876;7.012;2023-10-19T14:12:36;16.18;89.35
18581;DHT22;9420;50.876;7.012;2023-10-19T14:15:04;16.15;89.43
18581;DHT22;9420;50.876;7.012;2023-10-19T14:17:31;16.17;89.33
18581;DHT22;9420;50.876;7.012;2023-10-19T14:19:58;16.12;89.29
18581;DHT22;9420;50.876;7.012;2023-10-19T14:22:24;16.09;89.53
18581;DHT22;9420;50.876;7.012;2023-10-19T14:24:51;16.12;89.80
18581;DHT22;9420;50.876;7.012;2023-10-19T14:27:18;16.08;89.65
18581;DHT22;9420;50.876;7.012;2023-10-19T14:29:48;16.09;89.68
18581;DHT22;9420;50.876;7.012;2023-10-19T14:32:15;16.12;89.54
18581;DHT22;9420;50.876;7.012;2023-10-19T14:34:42;16.14;89.47
18581;DHT22;9420;50.876;7.012;2023-10-19T14:37:08;16.15;89.39
18581;DHT22;9420;50.876;7.012;2023-10-19T14:39:35;16.22;89.46
18581;DHT22;9420;50.876;7.012;2023-10-19T14:42:02;16.38;89.28
18581;DHT22;9420;50.876;7.012;2023-10-19T14:44:28;16.53;88.58
18581;DHT22;9420;50.876;7.012;2023-10-19T14:46:56;16.70;88.49
18581;DHT22;9420;50.876;7.012;2023-10-19T14:49:23;16.87;88.24
18581;DHT22;9420;50.876;7.012;2023-10-19T14:51:49;17.07;87.59
18581;DHT22;9420;50.876;7.012;2023-10-19T14:54:16;17.18;87.42
18581;DHT22;9420;50.876;7.012;2023-10-19T14:56:43;17.13;87.45
18581;DHT22;9420;50.876;7.012;2023-10-19T14:59:09;17.03;87.50
18581;DHT22;9420;50.876;7.012;2023-10-19T15:01:36;17.00;87.72
18581;DHT22;9420;50.876;7.012;2023-10-19T15:04:04;16.96;88.20
18581;DHT22;9420;50.876;7.012;2023-10-19T15:06:31;17.00;88.23
18581;DHT22;9420;50.876;7.012;2023-10-19T15:08:58;17.76;86.50
18581;DHT22;9420;50.876;7.012;2023-10-19T15:11:26;17.78;85.29
18581;DHT22;9420;50.876;7.012;2023-10-19T15:13:52;18.79;82.78
18581;DHT22;9420;50.876;7.012;2023-10-19T15:16:19;18.48;83.24
18581;DHT22;9420;50.876;7.012;2023-10-19T15:18:46;17.99;84.23
18581;DHT22;9420;50.876;7.012;2023-10-19T15:21:14;17.75;85.05
18581;DHT22;9420;50.876;7.012;2023-10-19T15:23:42;17.69;85.48
18581;DHT22;9420;50.876;7.012;2023-10-19T15:26:09;17.45;85.64
18581;DHT22;9420;50.876;7.012;2023-10-19T15:28:36;17.21;86.28
18581;DHT22;9420;50.876;7.012;2023-10-19T15:31:05;17.04;86.87
18581;DHT22;9420;50.876;7.012;2023-10-19T15:33:32;17.10;86.34
18581;DHT22;9420;50.876;7.012;2023-10-19T15:35:59;17.00;86.57
18581;DHT22;9420;50.876;7.012;2023-10-19T15:38:29;16.87;86.74
18581;DHT22;9420;50.876;7.012;2023-10-19T15:40:56;16.84;87.26
18581;DHT22;9420;50.876;7.012;2023-10-19T15:43:22;16.90;87.28
18581;DHT22;9420;50.876;7.012;2023-10-19T15:45:50;16.88;87.63
18581;DHT22;9420;50.876;7.012;2023-10-19T15:48:16;16.97;86.99
18581;DHT22;9420;50.876;7.012;2023-10-19T15:50:44;16.94;87.04
18581;DHT22;9420;50.876;7.012;2023-10-19T15:53:10;16.99;86.45
18581;DHT22;9420;50.876;7.012;2023-10-19T15:55:38;16.79;87.02